createdAt,value
2022-10-06T00:01:04.219Z,21.40
2022-10-06T00:03:51.733Z,21.40
2022-10-06T00:06:40.485Z,21.30
2022-10-06T00:09:27.956Z,21.30
2022-10-06T00:12:15.324Z,21.30
2022-10-06T00:15:02.422Z,21.30
2022-10-06T00:17:50.472Z,21.30
2022-10-06T00:20:37.860Z,21.30
2022-10-06T00:23:26.903Z,21.30
2022-10-06T00:26:16.824Z,21.30
2022-10-06T00:29:04.933Z,21.30
2022-10-06T00:31:52.521Z,21.20
2022-10-06T00:34:39.800Z,21.30
2022-10-06T00:37:27.214Z,21.30
2022-10-06T00:40:15.977Z,21.20
2022-10-06T00:43:06.090Z,21.20
2022-10-06T00:45:54.186Z,21.20
2022-10-06T00:48:42.154Z,21.20
2022-10-06T00:51:31.475Z,21.20
2022-10-06T00:54:20.375Z,21.20
2022-10-06T00:57:09.483Z,21.20
2022-10-06T00:59:57.080Z,21.10
2022-10-06T01:02:50.269Z,21.10
2022-10-06T01:05:43.411Z,21.10
2022-10-06T01:08:32.555Z,21.10
2022-10-06T01:11:19.986Z,21.10
2022-10-06T01:14:09.024Z,21.10
2022-10-06T01:17:01.122Z,21.10
2022-10-06T01:19:53.546Z,21.00
2022-10-06T01:22:45.564Z,21.00
2022-10-06T01:25:34.646Z,21.00
2022-10-06T01:28:22.632Z,21.10
2022-10-06T01:31:11.292Z,21.00
2022-10-06T01:33:58.775Z,21.00
2022-10-06T01:36:46.804Z,21.00
2022-10-06T01:39:36.286Z,21.00
2022-10-06T01:42:24.409Z,21.00
2022-10-06T01:45:12.337Z,21.00
2022-10-06T01:47:59.689Z,21.00
2022-10-06T01:50:48.184Z,21.00
2022-10-06T01:53:35.986Z,21.00
2022-10-06T01:56:24.959Z,21.00
2022-10-06T01:59:12.422Z,21.00
2022-10-06T02:02:00.006Z,21.00
2022-10-06T02:04:47.718Z,21.00
2022-10-06T02:07:36.840Z,21.10
2022-10-06T02:10:24.310Z,21.00
2022-10-06T02:13:14.271Z,21.00
2022-10-06T02:16:01.961Z,21.00
2022-10-06T02:18:49.357Z,21.10
2022-10-06T02:21:36.596Z,21.10
2022-10-06T02:24:23.947Z,21.10
2022-10-06T02:27:11.424Z,21.10
2022-10-06T02:30:00.140Z,21.10
2022-10-06T02:32:48.294Z,21.10
2022-10-06T02:35:35.929Z,21.10
2022-10-06T02:38:23.912Z,21.10
2022-10-06T02:41:11.982Z,21.10
2022-10-06T02:44:00.085Z,21.10
2022-10-06T02:46:49.841Z,21.10
2022-10-06T02:49:38.303Z,21.10
2022-10-06T02:52:25.794Z,21.10
2022-10-06T02:55:13.781Z,21.10
2022-10-06T02:58:01.417Z,21.10
2022-10-06T03:00:48.948Z,21.10
2022-10-06T03:03:39.257Z,21.10
2022-10-06T03:06:28.644Z,21.10
2022-10-06T03:09:24.345Z,21.10
2022-10-06T03:12:13.495Z,21.10
2022-10-06T03:15:04.709Z,21.10
2022-10-06T03:17:52.683Z,21.10
2022-10-06T03:20:41.464Z,21.00
2022-10-06T03:23:29.279Z,21.10
2022-10-06T03:26:18.705Z,21.00
2022-10-06T03:29:11.137Z,21.00
2022-10-06T03:32:03.145Z,21.00
2022-10-06T03:34:50.852Z,21.00
2022-10-06T03:37:39.965Z,21.00
2022-10-06T03:40:27.867Z,21.00
2022-10-06T03:43:15.616Z,21.00
2022-10-06T03:46:04.369Z,21.00
2022-10-06T03:48:54.055Z,21.00
2022-10-06T03:51:43.048Z,21.00
2022-10-06T03:54:40.640Z,21.00
2022-10-06T03:57:27.875Z,21.00
2022-10-06T04:00:16.629Z,21.00
2022-10-06T04:03:05.677Z,21.00
2022-10-06T04:05:58.509Z,21.00
2022-10-06T04:08:49.388Z,21.00
2022-10-06T04:11:40.811Z,21.00
2022-10-06T04:14:28.934Z,21.00
2022-10-06T04:17:17.213Z,20.90
2022-10-06T04:20:04.901Z,20.90
2022-10-06T04:22:52.770Z,20.90
2022-10-06T04:25:40.091Z,20.90
2022-10-06T04:28:29.033Z,20.90
2022-10-06T04:31:20.184Z,20.90
2022-10-06T04:34:09.033Z,20.90
2022-10-06T04:36:56.712Z,20.90
2022-10-06T04:39:44.678Z,20.90
2022-10-06T04:42:35.069Z,20.90
2022-10-06T04:45:26.512Z,20.90
2022-10-06T04:48:14.989Z,20.90
2022-10-06T04:51:05.079Z,20.90
2022-10-06T04:53:53.308Z,20.90
2022-10-06T04:56:41.788Z,20.90
2022-10-06T04:59:43.764Z,20.90
2022-10-06T05:02:33.829Z,20.90
2022-10-06T05:05:21.267Z,20.90
2022-10-06T05:08:10.797Z,20.90
2022-10-06T05:11:01.697Z,20.90
2022-10-06T05:13:51.805Z,20.90
2022-10-06T05:16:39.281Z,20.90
2022-10-06T05:19:29.440Z,20.80
2022-10-06T05:22:17.327Z,20.80
2022-10-06T05:25:05.781Z,20.80
2022-10-06T05:27:53.384Z,20.80
2022-10-06T05:30:41.120Z,20.80
2022-10-06T05:33:31.169Z,20.80
2022-10-06T05:36:22.863Z,20.80
2022-10-06T05:39:12.151Z,20.80
2022-10-06T05:42:09.730Z,20.80
2022-10-06T05:44:58.290Z,20.80
2022-10-06T05:47:45.676Z,20.70
2022-10-06T05:50:33.108Z,20.70
2022-10-06T05:53:21.741Z,20.70
2022-10-06T05:56:11.813Z,20.70
2022-10-06T05:59:02.037Z,20.80
2022-10-06T06:01:50.413Z,20.80
2022-10-06T06:04:42.584Z,20.70
2022-10-06T06:07:12.376Z,20.70
2022-10-06T06:09:45.659Z,20.70
2022-10-06T06:12:16.583Z,20.70
2022-10-06T06:15:08.947Z,20.70
2022-10-06T06:17:42.905Z,20.70
2022-10-06T06:20:11.948Z,20.70
2022-10-06T06:22:41.235Z,20.70
2022-10-06T06:25:13.001Z,20.70
2022-10-06T06:27:43.820Z,20.70
2022-10-06T06:30:13.716Z,20.70
2022-10-06T06:32:43.286Z,20.70
2022-10-06T06:35:12.777Z,20.70
2022-10-06T06:37:41.884Z,20.70
2022-10-06T06:40:12.378Z,20.70
2022-10-06T06:42:44.386Z,20.70
2022-10-06T06:45:36.041Z,20.70
2022-10-06T06:48:23.675Z,20.70
2022-10-06T06:50:59.530Z,20.70
2022-10-06T06:53:32.324Z,20.70
2022-10-06T06:56:05.205Z,20.70
2022-10-06T06:58:36.205Z,20.70
2022-10-06T07:01:13.774Z,20.70
2022-10-06T07:03:57.181Z,20.70
2022-10-06T07:06:29.434Z,20.70
2022-10-06T07:09:01.279Z,20.70
2022-10-06T07:11:35.288Z,20.70
2022-10-06T07:14:09.392Z,20.70
2022-10-06T07:17:07.530Z,20.70
2022-10-06T07:19:55.538Z,20.80
2022-10-06T07:22:45.995Z,20.80
2022-10-06T07:25:26.042Z,20.80
2022-10-06T07:28:04.359Z,20.90
2022-10-06T07:30:40.972Z,20.90
2022-10-06T07:33:15.837Z,20.90
2022-10-06T07:35:47.118Z,21.00
2022-10-06T07:38:18.729Z,21.00
2022-10-06T07:41:14.936Z,21.00
2022-10-06T07:43:47.628Z,21.00
2022-10-06T07:46:19.393Z,21.00
2022-10-06T07:49:12.144Z,21.00
2022-10-06T07:51:42.997Z,21.10
2022-10-06T07:54:12.274Z,21.10
2022-10-06T07:56:48.820Z,21.20
2022-10-06T07:59:22.219Z,21.30
2022-10-06T08:01:52.619Z,21.40
2022-10-06T08:04:21.705Z,21.50
2022-10-06T08:06:50.688Z,21.50
2022-10-06T08:09:20.053Z,21.60
2022-10-06T08:11:49.003Z,21.80
2022-10-06T08:14:19.407Z,21.80
2022-10-06T08:16:48.393Z,21.90
2022-10-06T08:19:19.648Z,22.00
2022-10-06T08:21:48.669Z,22.10
2022-10-06T08:24:19.718Z,22.10
2022-10-06T08:26:48.674Z,22.20
2022-10-06T08:29:19.074Z,22.30
2022-10-06T08:31:48.127Z,22.40
2022-10-06T08:34:17.231Z,22.50
2022-10-06T08:37:02.141Z,22.60
2022-10-06T08:39:35.264Z,22.60
2022-10-06T08:42:04.570Z,22.70
2022-10-06T08:44:40.644Z,22.80
2022-10-06T08:47:18.874Z,22.90
2022-10-06T08:49:50.318Z,22.90
2022-10-06T08:52:37.431Z,23.00
2022-10-06T08:55:24.567Z,23.10
2022-10-06T08:58:11.918Z,23.10
2022-10-06T09:00:42.382Z,23.20
2022-10-06T09:03:23.109Z,23.30
2022-10-06T09:05:54.309Z,23.30
2022-10-06T09:08:42.277Z,23.40
2022-10-06T09:11:37.192Z,23.50
2022-10-06T09:14:14.145Z,23.60
2022-10-06T09:16:53.720Z,23.60
2022-10-06T09:19:32.865Z,23.70
2022-10-06T09:22:05.653Z,23.80
2022-10-06T09:24:41.449Z,23.80
2022-10-06T09:27:20.299Z,23.90
2022-10-06T09:29:50.041Z,24.00
2022-10-06T09:32:22.649Z,24.10
2022-10-06T09:34:56.275Z,24.10
2022-10-06T09:37:25.580Z,24.20
2022-10-06T09:39:55.881Z,24.20
2022-10-06T09:42:28.352Z,24.30
2022-10-06T09:45:03.968Z,24.30
2022-10-06T09:47:41.140Z,24.30
2022-10-06T09:50:23.617Z,24.40
2022-10-06T09:53:18.482Z,24.40
2022-10-06T09:55:54.865Z,24.40
2022-10-06T09:58:34.735Z,24.40
2022-10-06T10:01:07.177Z,24.40
2022-10-06T10:04:19.870Z,24.40
2022-10-06T10:06:42.414Z,24.40
2022-10-06T10:09:28.863Z,24.40
2022-10-06T10:12:27.634Z,24.50
2022-10-06T10:15:01.897Z,24.50
2022-10-06T10:17:40.245Z,24.50
2022-10-06T10:20:29.032Z,24.50
2022-10-06T10:23:01.328Z,24.50
2022-10-06T10:26:17.695Z,24.60
2022-10-06T10:29:08.033Z,24.70
2022-10-06T10:31:51.235Z,24.70
2022-10-06T10:34:42.076Z,24.70
2022-10-06T10:37:16.174Z,24.80
2022-10-06T10:39:52.281Z,24.90
2022-10-06T10:42:29.205Z,24.90
2022-10-06T10:45:02.823Z,25.00
2022-10-06T10:47:37.890Z,25.10
2022-10-06T10:50:12.611Z,25.10
2022-10-06T10:52:45.698Z,25.20
2022-10-06T10:55:29.025Z,25.20
2022-10-06T10:58:05.917Z,25.20
2022-10-06T11:00:40.320Z,25.30
2022-10-06T11:03:11.720Z,25.30
2022-10-06T11:06:08.841Z,25.30
2022-10-06T11:08:46.087Z,25.30
2022-10-06T11:11:23.543Z,25.30
2022-10-06T11:13:54.829Z,25.30
2022-10-06T11:16:37.302Z,25.30
2022-10-06T11:19:22.965Z,25.20
2022-10-06T11:22:00.133Z,25.20
2022-10-06T11:24:37.690Z,25.20
2022-10-06T11:27:23.399Z,25.10
2022-10-06T11:30:04.974Z,25.10
2022-10-06T11:32:48.649Z,25.00
2022-10-06T11:35:22.977Z,25.00
2022-10-06T11:38:00.309Z,24.90
2022-10-06T11:40:42.609Z,24.90
2022-10-06T11:43:21.850Z,24.90
2022-10-06T11:46:01.029Z,24.90
2022-10-06T11:48:32.131Z,24.90
2022-10-06T11:51:31.898Z,24.80
2022-10-06T11:54:01.099Z,24.80
2022-10-06T11:56:41.060Z,24.80
2022-10-06T11:59:26.726Z,24.80
2022-10-06T12:02:04.997Z,24.80
2022-10-06T12:04:34.144Z,24.80
2022-10-06T12:07:05.324Z,24.80
2022-10-06T12:09:53.184Z,24.90
2022-10-06T12:13:07.204Z,24.90
2022-10-06T12:19:19.358Z,24.90
2022-10-06T12:22:01.523Z,24.90
2022-10-06T12:24:42.875Z,25.00
2022-10-06T12:27:36.597Z,25.00
2022-10-06T12:30:22.549Z,24.90
2022-10-06T12:32:54.941Z,24.90
2022-10-06T12:35:32.034Z,24.90
2022-10-06T12:38:04.861Z,24.90
2022-10-06T12:40:49.280Z,24.80
2022-10-06T12:43:56.963Z,24.70
2022-10-06T12:46:38.203Z,24.70
2022-10-06T12:49:42.669Z,24.60
2022-10-06T12:52:32.522Z,24.60
2022-10-06T12:55:16.300Z,24.60
2022-10-06T12:57:50.811Z,24.60
2022-10-06T13:00:34.983Z,24.50
2022-10-06T13:03:08.879Z,24.50
2022-10-06T13:05:38.591Z,24.50
2022-10-06T13:08:22.619Z,24.40
2022-10-06T13:10:51.668Z,24.40
2022-10-06T13:13:24.741Z,24.40
2022-10-06T13:15:55.964Z,24.30
2022-10-06T13:18:26.434Z,24.30
2022-10-06T13:20:57.022Z,24.30
2022-10-06T13:23:29.238Z,24.20
2022-10-06T13:26:00.194Z,24.20
2022-10-06T13:28:48.551Z,24.20
2022-10-06T13:31:22.521Z,24.20
2022-10-06T13:33:57.569Z,24.10
2022-10-06T13:36:27.207Z,24.10
2022-10-06T13:38:56.431Z,24.10
2022-10-06T13:41:31.714Z,24.10
2022-10-06T13:44:04.095Z,24.00
2022-10-06T13:46:41.012Z,24.00
2022-10-06T13:49:21.238Z,23.90
2022-10-06T13:51:53.770Z,23.90
2022-10-06T13:54:29.470Z,23.90
2022-10-06T13:56:59.280Z,23.90
2022-10-06T13:59:36.678Z,23.80
2022-10-06T14:02:26.705Z,23.80
2022-10-06T14:05:29.328Z,23.80
2022-10-06T14:08:02.015Z,23.70
2022-10-06T14:10:45.998Z,23.70
2022-10-06T14:13:19.765Z,23.70
2022-10-06T14:15:51.812Z,23.60
2022-10-06T14:18:24.404Z,23.60
2022-10-06T14:20:56.504Z,23.60
2022-10-06T14:23:49.891Z,23.50
2022-10-06T14:26:21.379Z,23.50
2022-10-06T14:28:52.977Z,23.50
2022-10-06T14:31:23.642Z,23.50
2022-10-06T14:33:54.703Z,23.50
2022-10-06T14:36:28.210Z,23.50
2022-10-06T14:38:59.460Z,23.50
2022-10-06T14:41:31.017Z,23.40
2022-10-06T14:44:02.956Z,23.40
2022-10-06T14:46:32.036Z,23.40
2022-10-06T14:49:03.241Z,23.40
2022-10-06T14:51:36.576Z,23.30
2022-10-06T14:54:07.514Z,23.30
2022-10-06T14:56:39.323Z,23.30
2022-10-06T14:59:11.986Z,23.30
2022-10-06T15:01:41.588Z,23.20
2022-10-06T15:04:14.233Z,23.20
2022-10-06T15:07:02.379Z,23.20
2022-10-06T15:09:32.072Z,23.20
2022-10-06T15:12:01.649Z,23.10
2022-10-06T15:14:30.866Z,23.10
2022-10-06T15:17:00.396Z,23.10
2022-10-06T15:19:29.629Z,23.10
2022-10-06T15:22:00.567Z,23.10
2022-10-06T15:24:29.819Z,23.00
2022-10-06T15:27:17.657Z,23.00
2022-10-06T15:29:48.292Z,23.00
2022-10-06T15:32:17.276Z,23.00
2022-10-06T15:34:46.345Z,22.90
2022-10-06T15:37:19.938Z,22.90
2022-10-06T15:39:48.958Z,22.90
2022-10-06T15:42:21.629Z,22.90
2022-10-06T15:44:50.897Z,22.90
2022-10-06T15:47:19.880Z,22.80
2022-10-06T15:49:49.367Z,22.80
2022-10-06T15:52:19.721Z,22.80
2022-10-06T15:54:49.905Z,22.80
2022-10-06T15:57:21.228Z,22.70
2022-10-06T15:59:51.299Z,22.70
2022-10-06T16:02:22.363Z,22.70
2022-10-06T16:05:17.715Z,22.70
2022-10-06T16:07:48.087Z,22.70
2022-10-06T16:10:17.453Z,22.60
2022-10-06T16:12:46.484Z,22.60
2022-10-06T16:15:15.661Z,22.60
2022-10-06T16:17:44.645Z,22.60
2022-10-06T16:20:15.272Z,22.50
2022-10-06T16:22:44.255Z,22.50
2022-10-06T16:25:15.142Z,22.50
2022-10-06T16:27:44.145Z,22.50
2022-10-06T16:30:13.589Z,22.40
2022-10-06T16:32:42.583Z,22.40
2022-10-06T16:35:16.049Z,22.40
2022-10-06T16:37:49.887Z,22.30
2022-10-06T16:40:22.572Z,22.30
2022-10-06T16:42:53.086Z,22.30
2022-10-06T16:45:22.105Z,22.30
2022-10-06T16:47:51.125Z,22.20
2022-10-06T16:50:20.132Z,22.20
2022-10-06T16:52:49.117Z,22.20
2022-10-06T16:55:19.539Z,22.10
2022-10-06T16:57:48.587Z,22.10
2022-10-06T17:00:17.961Z,22.10
2022-10-06T17:02:46.996Z,22.00
2022-10-06T17:05:16.243Z,22.00
2022-10-06T17:07:45.240Z,21.90
2022-10-06T17:10:20.501Z,21.90
2022-10-06T17:12:51.440Z,21.90
2022-10-06T17:15:20.472Z,21.80
2022-10-06T17:17:49.502Z,21.80
2022-10-06T17:20:18.594Z,21.70
2022-10-06T17:22:48.597Z,21.70
2022-10-06T17:25:17.638Z,21.70
2022-10-06T17:27:46.667Z,21.60
2022-10-06T17:30:17.266Z,21.60
2022-10-06T17:32:47.351Z,21.60
2022-10-06T17:35:19.105Z,21.50
2022-10-06T17:37:50.232Z,21.50
2022-10-06T17:40:19.525Z,21.40
2022-10-06T17:42:48.519Z,21.40
2022-10-06T17:45:21.303Z,21.40
2022-10-06T17:47:51.739Z,21.30
2022-10-06T17:50:20.774Z,21.30
2022-10-06T17:52:49.757Z,21.30
2022-10-06T17:55:18.904Z,21.20
2022-10-06T17:57:47.900Z,21.10
2022-10-06T18:00:18.777Z,21.10
2022-10-06T18:02:48.006Z,21.00
2022-10-06T18:05:18.055Z,21.00
2022-10-06T18:07:47.350Z,21.00
2022-10-06T18:10:33.980Z,20.90
2022-10-06T18:13:02.982Z,20.90
2022-10-06T18:15:37.134Z,20.80
2022-10-06T18:18:06.372Z,20.80
2022-10-06T18:20:40.317Z,20.80
2022-10-06T18:23:09.985Z,20.70
2022-10-06T18:25:40.203Z,20.70
2022-10-06T18:28:10.407Z,20.70
2022-10-06T18:30:40.872Z,20.60
2022-10-06T18:36:12.935Z,20.50
2022-10-06T18:38:46.947Z,20.50
2022-10-06T18:41:18.932Z,20.50
2022-10-06T18:43:47.924Z,20.40
2022-10-06T18:46:36.622Z,20.40
2022-10-06T18:49:10.533Z,20.30
2022-10-06T18:51:41.611Z,20.30
2022-10-06T18:54:13.422Z,20.30
2022-10-06T18:56:46.254Z,20.20
2022-10-06T18:59:16.386Z,20.20
2022-10-06T19:01:48.804Z,20.10
2022-10-06T19:04:19.911Z,20.10
2022-10-06T19:06:53.071Z,20.00
2022-10-06T19:09:24.382Z,20.00
2022-10-06T19:11:57.768Z,20.00
2022-10-06T19:14:29.849Z,19.90
2022-10-06T19:17:04.795Z,19.90
2022-10-06T19:19:35.019Z,19.90
2022-10-06T19:22:05.543Z,19.80
2022-10-06T19:24:38.138Z,19.80
2022-10-06T19:27:12.196Z,19.70
2022-10-06T19:29:45.739Z,19.70
2022-10-06T19:32:19.797Z,19.70
2022-10-06T19:34:49.048Z,19.60
2022-10-06T19:37:18.139Z,19.60
2022-10-06T19:39:50.228Z,19.50
2022-10-06T19:42:38.672Z,19.50
2022-10-06T19:45:11.849Z,19.50
2022-10-06T19:47:42.984Z,19.40
2022-10-06T19:50:12.981Z,19.40
2022-10-06T19:52:42.540Z,19.40
2022-10-06T19:55:11.588Z,19.30
2022-10-06T19:57:40.632Z,19.20
2022-10-06T20:00:11.556Z,19.20
2022-10-06T20:02:45.329Z,19.20
2022-10-06T20:05:36.593Z,19.10
2022-10-06T20:08:23.956Z,19.10
2022-10-06T20:11:14.098Z,19.10
2022-10-06T20:14:01.388Z,19.00
2022-10-06T20:16:50.696Z,19.00
2022-10-06T20:19:40.060Z,19.00
2022-10-06T20:22:27.943Z,18.90
2022-10-06T20:25:15.802Z,18.90
2022-10-06T20:28:08.192Z,18.90
2022-10-06T20:30:58.780Z,18.80
2022-10-06T20:33:49.582Z,18.80
2022-10-06T20:36:39.983Z,18.70
2022-10-06T20:39:45.075Z,18.70
2022-10-06T20:42:32.766Z,18.60
2022-10-06T20:45:21.025Z,18.60
2022-10-06T20:48:09.109Z,18.50
2022-10-06T20:50:58.028Z,18.50
2022-10-06T20:53:47.622Z,18.50
2022-10-06T20:56:37.319Z,18.40
2022-10-06T20:59:25.821Z,18.40
2022-10-06T21:02:13.604Z,18.40
2022-10-06T21:05:02.329Z,18.30
2022-10-06T21:07:50.855Z,18.30
2022-10-06T21:10:40.040Z,18.30
2022-10-06T21:13:29.200Z,18.20
2022-10-06T21:16:17.036Z,18.20
2022-10-06T21:19:08.098Z,18.20
2022-10-06T21:21:56.040Z,18.10
2022-10-06T21:24:43.687Z,18.10
2022-10-06T21:27:32.515Z,18.10
2022-10-06T21:30:20.195Z,18.00
2022-10-06T21:33:07.544Z,18.00
2022-10-06T21:36:02.267Z,17.90
2022-10-06T21:38:53.350Z,17.90
2022-10-06T21:41:41.817Z,17.90
2022-10-06T21:44:30.692Z,17.80
2022-10-06T21:47:18.738Z,17.80
2022-10-06T21:50:07.116Z,17.70
2022-10-06T21:52:57.617Z,17.70
2022-10-06T21:55:47.055Z,17.70
2022-10-06T21:58:47.480Z,17.60
2022-10-06T22:01:43.241Z,17.60
2022-10-06T22:04:34.887Z,17.60
2022-10-06T22:07:30.603Z,17.60
2022-10-06T22:11:16.366Z,17.50
2022-10-06T22:14:24.297Z,17.50
2022-10-06T22:17:51.983Z,17.50
2022-10-06T22:20:46.853Z,17.40
2022-10-06T22:23:35.022Z,17.40
2022-10-06T22:26:26.315Z,17.30
2022-10-06T22:29:17.886Z,17.30
2022-10-06T22:32:38.299Z,17.20
2022-10-06T22:35:27.105Z,17.20
2022-10-06T22:38:18.212Z,17.20
2022-10-06T22:41:08.936Z,17.20
2022-10-06T22:43:59.200Z,17.10
2022-10-06T22:46:52.023Z,17.10
2022-10-06T22:49:41.877Z,17.10
2022-10-06T22:52:44.093Z,17.10
2022-10-06T22:55:35.879Z,17.10
2022-10-06T22:58:24.265Z,17.00
2022-10-06T23:01:17.558Z,17.00
2022-10-06T23:04:09.841Z,17.00
2022-10-06T23:07:00.386Z,17.00
2022-10-06T23:09:54.310Z,17.00
2022-10-06T23:12:42.902Z,16.90
2022-10-06T23:15:31.470Z,16.90
2022-10-06T23:23:03.068Z,16.80
2022-10-06T23:25:51.894Z,16.80
2022-10-06T23:28:41.891Z,16.80
2022-10-06T23:31:31.979Z,16.70
2022-10-06T23:34:20.701Z,16.70
2022-10-06T23:37:14.422Z,16.70
2022-10-06T23:40:04.813Z,16.60
2022-10-06T23:42:53.427Z,16.60
2022-10-06T23:45:42.247Z,16.50
2022-10-06T23:48:30.764Z,16.50
2022-10-06T23:51:19.669Z,16.50
2022-10-06T23:54:08.695Z,16.50
2022-10-06T23:56:58.887Z,16.40
2022-10-06T23:59:49.771Z,16.40
